createdAt,value
2017-07-25T00:00:31.048Z,-0.9
2017-07-25T00:01:30.118Z,-1
2017-07-25T00:02:29.185Z,-0.9
2017-07-25T00:03:28.546Z,-0.9
2017-07-25T00:04:27.622Z,-0.9
2017-07-25T00:05:26.566Z,-0.9
2017-07-25T00:06:26.159Z,-0.9
2017-07-25T00:07:25.223Z,-1
2017-07-25T00:08:24.804Z,-1
2017-07-25T00:10:23.383Z,-1
2017-07-25T00:11:22.463Z,-1
2017-07-25T00:12:21.655Z,-1
2017-07-25T00:13:20.608Z,-1
2017-07-25T00:14:20.203Z,-1
2017-07-25T00:15:19.398Z,-0.9
2017-07-25T00:16:18.591Z,-0.9
2017-07-25T00:17:18.297Z,-1
2017-07-25T00:17:48.807Z,-1
2017-07-25T00:18:19.186Z,-1
2017-07-25T00:18:49.569Z,-1
2017-07-25T00:20:15.939Z,-1
2017-07-25T00:21:15.022Z,-1
2017-07-25T00:22:14.213Z,-1
2017-07-25T00:23:13.399Z,-1
2017-07-25T00:24:12.477Z,-1
2017-07-25T00:26:11.565Z,-1
2017-07-25T00:27:10.530Z,-1
2017-07-25T00:28:09.622Z,-0.9
2017-07-25T00:29:09.330Z,-1
2017-07-25T00:30:08.432Z,-1
2017-07-25T00:31:07.638Z,-1
2017-07-25T00:32:06.592Z,-0.9
2017-07-25T00:34:05.052Z,-0.9
2017-07-25T00:35:04.402Z,-0.9
2017-07-25T00:36:03.485Z,-0.9
2017-07-25T00:37:03.072Z,-0.9
2017-07-25T00:38:01.914Z,-0.9
2017-07-25T00:39:01.493Z,-0.9
2017-07-25T00:40:00.565Z,-0.9
2017-07-25T00:44:57.206Z,-0.9
2017-07-25T00:46:55.681Z,-1
2017-07-25T00:47:54.656Z,-0.8
2017-07-25T00:48:53.498Z,-0.8
2017-07-25T00:50:52.585Z,-0.8
2017-07-25T00:51:51.784Z,-0.8
2017-07-25T00:52:50.977Z,-0.8
2017-07-25T00:53:50.070Z,-0.8
2017-07-25T00:54:49.665Z,-0.8
2017-07-25T00:55:48.748Z,-0.8
2017-07-25T00:56:48.332Z,-0.8
2017-07-25T00:57:47.414Z,-0.8
2017-07-25T00:58:46.621Z,-0.8
2017-07-25T01:00:45.090Z,-0.8
2017-07-25T01:01:44.282Z,-0.8
2017-07-25T01:02:43.478Z,-0.8
2017-07-25T01:03:42.682Z,-0.8
2017-07-25T01:04:41.756Z,-0.8
2017-07-25T01:05:41.444Z,-0.8
2017-07-25T01:07:40.048Z,-0.8
2017-07-25T01:09:38.029Z,-0.9
2017-07-25T01:11:36.618Z,-0.8
2017-07-25T01:13:35.198Z,-0.8
2017-07-25T01:14:05.695Z,-0.8
2017-07-25T01:14:36.084Z,-0.7
2017-07-25T01:15:06.620Z,-0.7
2017-07-25T01:16:32.635Z,-0.8
2017-07-25T01:17:32.211Z,-0.9
2017-07-25T01:18:31.397Z,-0.9
2017-07-25T01:20:29.990Z,-0.9
2017-07-25T01:22:28.454Z,-0.8
2017-07-25T01:23:27.650Z,-0.8
2017-07-25T01:24:26.607Z,-0.8
2017-07-25T01:24:56.876Z,-0.8
2017-07-25T01:25:27.148Z,-0.8
2017-07-25T01:25:58.057Z,-0.8
2017-07-25T01:27:24.934Z,-0.8
2017-07-25T01:28:23.892Z,-0.8
2017-07-25T01:29:23.095Z,-0.8
2017-07-25T01:30:22.790Z,-0.9
2017-07-25T01:32:20.764Z,-0.9
2017-07-25T01:33:20.353Z,-0.8
2017-07-25T01:34:19.438Z,-0.8
2017-07-25T01:35:18.511Z,-0.8
2017-07-25T01:36:18.091Z,-0.8
2017-07-25T01:37:17.314Z,-0.8
2017-07-25T01:38:16.386Z,-0.8
2017-07-25T01:39:15.580Z,-0.9
2017-07-25T01:40:15.173Z,-0.9
2017-07-25T01:42:13.758Z,-0.8
2017-07-25T01:43:12.835Z,-0.9
2017-07-25T01:43:43.342Z,-0.9
2017-07-25T01:44:13.734Z,-0.9
2017-07-25T01:44:44.245Z,-0.9
2017-07-25T01:46:10.506Z,-0.9
2017-07-25T01:47:09.694Z,-0.9
2017-07-25T01:48:08.776Z,-0.9
2017-07-25T01:49:08.362Z,-0.8
2017-07-25T01:50:07.585Z,-0.9
2017-07-25T01:51:06.789Z,-0.9
2017-07-25T01:52:05.760Z,-0.9
2017-07-25T01:54:04.232Z,-0.8
2017-07-25T01:55:03.695Z,-0.8
2017-07-25T01:57:02.280Z,-0.9
2017-07-25T01:58:01.243Z,-0.9
2017-07-25T01:59:00.938Z,-0.9
2017-07-25T02:00:00.013Z,-0.9
2017-07-25T02:00:59.201Z,-0.9
2017-07-25T02:02:57.793Z,-0.8
2017-07-25T02:03:56.996Z,-0.8
2017-07-25T02:04:56.199Z,-0.8
2017-07-25T02:05:26.707Z,-0.8
2017-07-25T02:06:54.598Z,-0.8
2017-07-25T02:07:25.117Z,-0.8
2017-07-25T02:07:55.393Z,-0.9
2017-07-25T02:08:25.903Z,-0.9
2017-07-25T02:09:52.155Z,-0.8
2017-07-25T02:10:51.858Z,-0.8
2017-07-25T02:12:50.175Z,-0.9
2017-07-25T02:13:49.372Z,-0.8
2017-07-25T02:14:48.561Z,-0.8
2017-07-25T02:15:47.778Z,-0.9
2017-07-25T02:16:47.457Z,-0.9
2017-07-25T02:17:46.529Z,-0.9
2017-07-25T02:18:45.484Z,-0.9
2017-07-25T02:19:45.172Z,-0.9
2017-07-25T02:20:44.364Z,-0.9
2017-07-25T02:21:43.453Z,-0.9
2017-07-25T02:23:41.920Z,-0.9
2017-07-25T02:26:39.890Z,-0.9
2017-07-25T02:29:37.371Z,-0.9
2017-07-25T02:30:36.339Z,-0.8
2017-07-25T02:31:36.042Z,-0.8
2017-07-25T02:32:35.226Z,-0.8
2017-07-25T02:33:34.429Z,-0.9
2017-07-25T02:34:33.623Z,-0.9
2017-07-25T02:35:32.820Z,-0.8
2017-07-25T02:36:03.210Z,-0.8
2017-07-25T02:36:33.717Z,-0.9
2017-07-25T02:37:06.805Z,-0.9
2017-07-25T02:37:34.680Z,-0.9
2017-07-25T02:38:04.966Z,-0.9
2017-07-25T02:38:35.502Z,-0.9
2017-07-25T02:39:29.560Z,-0.9
2017-07-25T02:40:29.045Z,-0.8
2017-07-25T02:41:28.239Z,-0.9
2017-07-25T02:42:27.333Z,-0.9
2017-07-25T02:43:27.059Z,-0.9
2017-07-25T02:44:26.263Z,-0.9
2017-07-25T02:45:25.480Z,-0.9
2017-07-25T02:46:24.694Z,-0.9
2017-07-25T02:47:23.758Z,-0.9
2017-07-25T02:48:23.239Z,-1
2017-07-25T02:49:22.334Z,-1
2017-07-25T02:50:21.440Z,-0.9
2017-07-25T02:51:20.641Z,-0.9
2017-07-25T02:52:20.345Z,-0.9
2017-07-25T02:53:19.448Z,-1
2017-07-25T02:54:18.419Z,-0.9
2017-07-25T02:55:17.513Z,-0.9
2017-07-25T02:56:17.208Z,-1
2017-07-25T02:57:16.044Z,-1
2017-07-25T02:58:15.506Z,-1
2017-07-25T02:59:14.587Z,-1
2017-07-25T03:00:14.284Z,-1
2017-07-25T03:01:13.375Z,-1
2017-07-25T03:01:43.906Z,-1
2017-07-25T03:03:11.451Z,-0.9
2017-07-25T03:05:10.066Z,-0.9
2017-07-25T03:06:09.270Z,-0.9
2017-07-25T03:07:08.986Z,-0.8
2017-07-25T03:08:07.963Z,-0.8
2017-07-25T03:09:06.934Z,-0.8
2017-07-25T03:10:06.283Z,-0.8
2017-07-25T03:13:04.151Z,-0.9
2017-07-25T03:14:03.351Z,-0.9
2017-07-25T03:15:02.816Z,-1
2017-07-25T03:16:02.025Z,-0.9
2017-07-25T03:17:01.225Z,-0.8
2017-07-25T03:18:00.421Z,-0.8
2017-07-25T03:18:59.639Z,-0.8
2017-07-25T03:19:58.855Z,-0.9
2017-07-25T03:20:58.061Z,-0.9
2017-07-25T03:21:57.152Z,-0.9
2017-07-25T03:22:56.854Z,-0.9
2017-07-25T03:23:56.057Z,-0.9
2017-07-25T03:24:55.146Z,-1
2017-07-25T03:25:54.252Z,-1
2017-07-25T03:26:53.331Z,-0.9
2017-07-25T03:27:53.042Z,-0.9
2017-07-25T03:28:52.123Z,-0.9
2017-07-25T03:29:51.218Z,-0.9
2017-07-25T03:30:50.433Z,-0.9
2017-07-25T03:31:20.943Z,-0.9
2017-07-25T03:33:48.124Z,-0.8
2017-07-25T03:34:18.513Z,-0.8
2017-07-25T03:34:49.031Z,-1
2017-07-25T03:35:46.720Z,-1
2017-07-25T03:36:45.810Z,-1
2017-07-25T03:37:44.883Z,-1
2017-07-25T03:38:44.583Z,-0.8
2017-07-25T03:39:43.784Z,-0.9
2017-07-25T03:40:42.993Z,-0.9
2017-07-25T03:41:42.205Z,-0.8
2017-07-25T03:42:41.407Z,-0.8
2017-07-25T03:43:40.500Z,-0.8
2017-07-25T03:44:39.707Z,-0.8
2017-07-25T03:45:38.922Z,-0.8
2017-07-25T03:46:38.153Z,-0.8
2017-07-25T03:47:37.362Z,-0.8
2017-07-25T03:48:36.929Z,-0.8
2017-07-25T03:50:35.530Z,-0.8
2017-07-25T03:51:34.745Z,-0.9
2017-07-25T03:52:33.714Z,-0.8
2017-07-25T03:53:32.910Z,-0.8
2017-07-25T03:54:32.143Z,-0.9
2017-07-25T03:55:02.652Z,-0.9
2017-07-25T03:55:33.054Z,-0.9
2017-07-25T03:56:30.747Z,-0.9
2017-07-25T03:57:29.835Z,-0.9
2017-07-25T03:58:28.909Z,-0.9
2017-07-25T03:59:28.618Z,-0.9
2017-07-25T04:00:27.822Z,-1
2017-07-25T04:01:27.016Z,-0.8
2017-07-25T04:02:26.097Z,-0.9
2017-07-25T04:03:25.307Z,-0.9
2017-07-25T04:04:24.511Z,-0.9
2017-07-25T04:06:23.135Z,-0.9
2017-07-25T04:07:22.097Z,-0.9
2017-07-25T04:08:21.712Z,-0.9
2017-07-25T04:09:20.937Z,-0.9
2017-07-25T04:10:20.024Z,-0.9
2017-07-25T04:11:19.233Z,-1
2017-07-25T04:11:49.633Z,-1
2017-07-25T04:12:20.162Z,-1
2017-07-25T04:12:50.557Z,-1
2017-07-25T04:14:16.824Z,-1.1
2017-07-25T04:15:15.898Z,-1
2017-07-25T04:16:15.369Z,-1.1
2017-07-25T04:17:14.610Z,-1.1
2017-07-25T04:18:13.585Z,-1.1
2017-07-25T04:19:13.182Z,-1.1
2017-07-25T04:20:12.153Z,-1.1
2017-07-25T04:21:11.243Z,-1.1
2017-07-25T04:21:41.751Z,-1.1
2017-07-25T04:22:12.153Z,-1.1
2017-07-25T04:22:42.545Z,-1.1
2017-07-25T04:23:13.071Z,-1
2017-07-25T04:23:43.576Z,-1
2017-07-25T04:24:14.097Z,-1.1
2017-07-25T04:24:44.607Z,-1.1
2017-07-25T04:26:07.959Z,-1.1
2017-07-25T04:27:07.165Z,-1.1
2017-07-25T04:28:06.255Z,-1.1
2017-07-25T04:29:05.344Z,-1.1
2017-07-25T04:30:04.418Z,-1.1
2017-07-25T04:31:04.126Z,-1.1
2017-07-25T04:32:03.207Z,-1.1
2017-07-25T04:33:02.302Z,-1.1
2017-07-25T04:34:01.387Z,-1.1
2017-07-25T04:35:00.964Z,-1.1
2017-07-25T04:36:00.041Z,-1.1
2017-07-25T04:36:59.255Z,-1.1
2017-07-25T04:37:58.439Z,-1.1
2017-07-25T04:38:57.634Z,-1
2017-07-25T04:39:56.841Z,-1.1
2017-07-25T04:40:55.924Z,-1.1
2017-07-25T04:41:55.617Z,-1
2017-07-25T04:42:54.693Z,-1.1
2017-07-25T04:43:53.668Z,-1.1
2017-07-25T04:44:53.377Z,-1.1
2017-07-25T04:45:52.596Z,-1.1
2017-07-25T04:46:51.790Z,-1.1
2017-07-25T04:48:50.464Z,-1.1
2017-07-25T04:49:49.159Z,-1.1
2017-07-25T04:50:48.748Z,-1.1
2017-07-25T04:51:47.951Z,-1.1
2017-07-25T04:52:46.918Z,-1.1
2017-07-25T04:53:46.126Z,-1
2017-07-25T04:54:45.312Z,-1.1
2017-07-25T04:55:44.520Z,-1
2017-07-25T04:56:43.739Z,-1
2017-07-25T04:57:42.944Z,-1.1
2017-07-25T04:58:42.524Z,-1
2017-07-25T04:59:41.485Z,-1
2017-07-25T05:00:40.692Z,-1
2017-07-25T05:01:39.913Z,-1
2017-07-25T05:02:39.113Z,-1
2017-07-25T05:03:38.819Z,-1.1
2017-07-25T05:04:09.346Z,-1.1
2017-07-25T05:05:37.123Z,-1
2017-07-25T05:06:36.219Z,-1
2017-07-25T05:07:35.188Z,-1
2017-07-25T05:08:34.893Z,-1.1
2017-07-25T05:09:34.107Z,-1.1
2017-07-25T05:10:33.324Z,-1.1
2017-07-25T05:11:32.521Z,-1.1
2017-07-25T05:12:31.476Z,-1
2017-07-25T05:13:30.671Z,-1
2017-07-25T05:14:29.871Z,-1.1
2017-07-25T05:15:29.094Z,-1.1
2017-07-25T05:16:28.663Z,-1
2017-07-25T05:17:27.622Z,-1
2017-07-25T05:18:27.206Z,-1
2017-07-25T05:19:26.394Z,-1.1
2017-07-25T05:19:56.780Z,-1.1
2017-07-25T05:20:27.291Z,-1.1
2017-07-25T05:21:24.479Z,-1.1
2017-07-25T05:22:23.683Z,-1.1
2017-07-25T05:23:23.382Z,-1.1
2017-07-25T05:24:22.597Z,-1.1
2017-07-25T05:25:21.672Z,-1.1
2017-07-25T05:26:20.875Z,-1.1
2017-07-25T05:27:20.072Z,-1.2
2017-07-25T05:28:18.901Z,-1.2
2017-07-25T05:29:18.254Z,-1.2
2017-07-25T05:30:17.963Z,-1.1
2017-07-25T05:31:17.167Z,-1.1
2017-07-25T05:32:16.403Z,-1.2
2017-07-25T05:33:15.599Z,-1.2
2017-07-25T05:34:14.808Z,-1.2
2017-07-25T05:35:13.886Z,-1.2
2017-07-25T05:36:13.088Z,-1.2
2017-07-25T05:37:12.041Z,-1.3
2017-07-25T05:38:11.618Z,-1.2
2017-07-25T05:39:10.712Z,-1.3
2017-07-25T05:40:09.912Z,-1.3
2017-07-25T05:41:08.995Z,-1.3
2017-07-25T05:42:08.605Z,-1.3
2017-07-25T05:43:07.794Z,-1.3
2017-07-25T05:44:06.987Z,-1.3
2017-07-25T05:45:06.197Z,-1.3
2017-07-25T05:46:05.290Z,-1.3
2017-07-25T05:47:04.490Z,-1.3
2017-07-25T05:48:03.571Z,-1.3
2017-07-25T05:49:03.267Z,-1.3
2017-07-25T05:50:02.359Z,-1.3
2017-07-25T05:51:01.436Z,-1.3
2017-07-25T05:52:00.648Z,-1.3
2017-07-25T05:53:00.115Z,-1.2
2017-07-25T05:53:59.323Z,-1.2
2017-07-25T05:54:58.520Z,-1.2
2017-07-25T05:55:57.635Z,-1.1
2017-07-25T05:56:56.854Z,-1.1
2017-07-25T05:57:56.047Z,-1.2
2017-07-25T05:58:55.135Z,-1.2
2017-07-25T05:59:54.847Z,-1.2
2017-07-25T06:00:54.045Z,-1.2
2017-07-25T06:01:53.249Z,-1.2
2017-07-25T06:02:52.462Z,-1.2
2017-07-25T06:03:51.414Z,-1.1
2017-07-25T06:04:50.899Z,-1.2
2017-07-25T06:05:49.983Z,-1.1
2017-07-25T06:06:49.171Z,-1.2
2017-07-25T06:07:48.254Z,-1.2
2017-07-25T06:08:47.107Z,-1.2
2017-07-25T06:09:46.687Z,-1.2
2017-07-25T06:10:16.974Z,-1.2
2017-07-25T06:10:47.241Z,-1.2
2017-07-25T06:11:17.639Z,-1.2
2017-07-25T06:11:47.790Z,-1.2
2017-07-25T06:12:18.465Z,-1.2
2017-07-25T06:13:43.730Z,-1.1
2017-07-25T06:14:42.928Z,-1.1
2017-07-25T06:15:42.148Z,-1.1
2017-07-25T06:16:41.237Z,-1.1
2017-07-25T06:17:40.943Z,-1.1
2017-07-25T06:18:40.058Z,-1
2017-07-25T06:19:39.289Z,-1.1
2017-07-25T06:20:38.490Z,-1.1
2017-07-25T06:21:37.599Z,-1.1
2017-07-25T06:22:36.792Z,-1.1
2017-07-25T06:23:36.003Z,-1.1
2017-07-25T06:24:35.208Z,-1.1
2017-07-25T06:25:34.271Z,-1.2
2017-07-25T06:26:33.973Z,-1.2
2017-07-25T06:27:33.175Z,-1.2
2017-07-25T06:28:32.394Z,-1.1
2017-07-25T06:29:02.915Z,-1.1
2017-07-25T06:29:33.302Z,-1
2017-07-25T06:30:03.824Z,-1
2017-07-25T06:31:30.088Z,-1.1
2017-07-25T06:32:29.059Z,-1
2017-07-25T06:33:28.258Z,-1
2017-07-25T06:34:27.331Z,-1
2017-07-25T06:35:26.922Z,-1.1
2017-07-25T06:36:26.017Z,-1.1
2017-07-25T06:37:25.210Z,-1.1
2017-07-25T06:38:24.175Z,-1.1
2017-07-25T06:39:23.885Z,-1.1
2017-07-25T06:40:22.966Z,-1.1
2017-07-25T06:41:22.162Z,-1.1
2017-07-25T06:42:21.367Z,-1.1
2017-07-25T06:42:51.878Z,-1.1
2017-07-25T06:44:19.649Z,-1.1
2017-07-25T06:45:19.341Z,-1.1
2017-07-25T06:46:18.439Z,-1.1
2017-07-25T06:47:17.399Z,-1
2017-07-25T06:48:16.981Z,-1.1
2017-07-25T06:49:16.189Z,-1.1
2017-07-25T06:50:15.154Z,-1
2017-07-25T06:50:45.421Z,-1
2017-07-25T06:52:13.698Z,-1
2017-07-25T06:53:12.773Z,-1.1
2017-07-25T06:54:12.478Z,-1.1
2017-07-25T06:55:11.686Z,-1.1
2017-07-25T06:56:10.773Z,-1
2017-07-25T06:57:09.607Z,-1.1
2017-07-25T06:58:09.199Z,-1.1
2017-07-25T06:59:08.391Z,-1
2017-07-25T07:00:07.592Z,-1.1
2017-07-25T07:01:06.792Z,-1
2017-07-25T07:03:05.263Z,-1.1
2017-07-25T07:04:04.336Z,-1.2
2017-07-25T07:05:03.925Z,-1.1
2017-07-25T07:06:03.130Z,-1.1
2017-07-25T07:07:02.328Z,-1.1
2017-07-25T07:08:01.420Z,-1.1
2017-07-25T07:09:00.624Z,-1.2
2017-07-25T07:10:00.201Z,-1.1
2017-07-25T07:10:59.286Z,-1.1
2017-07-25T07:11:58.478Z,-1.1
2017-07-25T07:12:57.689Z,-1
2017-07-25T07:13:56.648Z,-1
2017-07-25T07:14:56.115Z,-1.1
2017-07-25T07:15:55.318Z,-1.2
2017-07-25T07:16:54.914Z,-1.2
2017-07-25T07:17:53.888Z,-1.2
2017-07-25T07:18:53.085Z,-1.2
2017-07-25T07:19:52.284Z,-1.2
2017-07-25T07:20:51.749Z,-1.2
2017-07-25T07:21:50.716Z,-1.2
2017-07-25T07:22:21.623Z,-1.2
2017-07-25T07:22:52.021Z,-1.1
2017-07-25T07:23:49.095Z,-1.1
2017-07-25T07:24:48.675Z,-1.3
2017-07-25T07:25:47.870Z,-1.2
2017-07-25T07:26:46.837Z,-1.2
2017-07-25T07:27:46.413Z,-1.2
2017-07-25T07:28:45.258Z,-1.3
2017-07-25T07:29:44.731Z,-1.3
2017-07-25T07:30:43.808Z,-1.2
2017-07-25T07:31:43.516Z,-1.2
2017-07-25T07:32:42.712Z,-1.2
2017-07-25T07:33:41.929Z,-1.2
2017-07-25T07:34:41.137Z,-1.2
2017-07-25T07:35:40.334Z,-1.2
2017-07-25T07:36:39.413Z,-1.2
2017-07-25T07:37:09.931Z,-1.2
2017-07-25T07:38:37.812Z,-1.1
2017-07-25T07:39:37.020Z,-1.1
2017-07-25T07:40:36.220Z,-1.1
2017-07-25T07:41:35.683Z,-1.2
2017-07-25T07:42:34.777Z,-1.2
2017-07-25T07:43:33.859Z,-1.2
2017-07-25T07:44:33.569Z,-1.1
2017-07-25T07:45:32.663Z,-1.1
2017-07-25T07:46:31.611Z,-1.1
2017-07-25T07:47:31.073Z,-1.1
2017-07-25T07:48:30.045Z,-1.1
2017-07-25T07:49:29.514Z,-1.1
2017-07-25T07:50:28.978Z,-1.1
2017-07-25T07:51:28.183Z,-1.1
2017-07-25T07:52:27.269Z,-1.1
2017-07-25T07:53:26.473Z,-1
2017-07-25T07:54:25.443Z,-1.1
2017-07-25T07:55:24.901Z,-1.1
2017-07-25T07:56:24.489Z,-1
2017-07-25T07:57:23.686Z,-1
2017-07-25T07:58:22.885Z,-1
2017-07-25T07:58:53.402Z,-1
2017-07-25T08:00:21.286Z,-1.1
2017-07-25T08:01:20.374Z,-1
2017-07-25T08:02:19.354Z,-1
2017-07-25T08:03:18.706Z,-1.1
2017-07-25T08:04:18.295Z,-1
2017-07-25T08:05:17.260Z,-1
2017-07-25T08:06:16.964Z,-1
2017-07-25T08:07:16.045Z,-1
2017-07-25T08:08:15.240Z,-1
2017-07-25T08:09:14.447Z,-0.9
2017-07-25T08:10:13.654Z,-0.9
2017-07-25T08:11:12.741Z,-0.9
2017-07-25T08:12:12.462Z,-0.9
2017-07-25T08:13:11.657Z,-0.9
2017-07-25T08:14:10.501Z,-1.1
2017-07-25T08:15:10.215Z,-0.9
2017-07-25T08:16:09.414Z,-1
2017-07-25T08:16:39.926Z,-1
2017-07-25T08:17:10.446Z,-1
2017-07-25T08:17:40.960Z,-1
2017-07-25T08:18:11.460Z,-1.1
2017-07-25T08:18:41.984Z,-1.1
2017-07-25T08:20:06.232Z,-1.1
2017-07-25T08:21:05.431Z,-1.1
2017-07-25T08:22:04.510Z,-1.1
2017-07-25T08:23:04.108Z,-1.1
2017-07-25T08:24:03.191Z,-1
2017-07-25T08:25:02.778Z,-1
2017-07-25T08:26:01.756Z,-0.9
2017-07-25T08:27:00.963Z,-1
2017-07-25T08:28:00.157Z,-0.9
2017-07-25T08:28:30.679Z,-0.9
2017-07-25T08:29:01.078Z,-1
2017-07-25T08:29:31.594Z,-1
2017-07-25T08:30:02.014Z,-1.1
2017-07-25T08:30:32.540Z,-1.1
2017-07-25T08:31:57.411Z,-1.1
2017-07-25T08:32:56.615Z,-1.1
2017-07-25T08:33:55.808Z,-1.2
2017-07-25T08:34:54.889Z,-1.1
2017-07-25T08:35:54.354Z,-1.1
2017-07-25T08:36:53.444Z,-1.1
2017-07-25T08:37:52.520Z,-1
2017-07-25T08:38:52.000Z,-1.1
2017-07-25T08:39:50.957Z,-1.1
2017-07-25T08:40:50.312Z,-1
2017-07-25T08:41:50.031Z,-1
2017-07-25T08:42:49.111Z,-0.9
2017-07-25T08:43:48.200Z,-1
2017-07-25T08:44:47.401Z,-0.9
2017-07-25T08:46:45.996Z,-0.8
2017-07-25T08:47:45.070Z,-0.9
2017-07-25T08:48:44.787Z,-1
2017-07-25T08:49:43.872Z,-0.9
2017-07-25T08:50:43.073Z,-0.9
2017-07-25T08:51:42.265Z,-0.9
2017-07-25T08:52:41.346Z,-0.9
2017-07-25T08:53:41.045Z,-0.9
2017-07-25T08:54:40.258Z,-1
2017-07-25T08:55:39.340Z,-1.1
2017-07-25T08:56:38.551Z,-1
2017-07-25T08:57:37.517Z,-1
2017-07-25T08:58:37.142Z,-1
2017-07-25T08:59:36.353Z,-1.1
2017-07-25T09:00:35.561Z,-1.1
2017-07-25T09:01:35.262Z,-1.1
2017-07-25T09:02:34.476Z,-1.1
2017-07-25T09:03:33.449Z,-1.1
2017-07-25T09:04:32.414Z,-1
2017-07-25T09:05:32.003Z,-1
2017-07-25T09:06:31.202Z,-0.9
2017-07-25T09:07:30.035Z,-1
2017-07-25T09:08:29.659Z,-1.1
2017-07-25T09:09:29.254Z,-1
2017-07-25T09:09:59.767Z,-1
2017-07-25T09:10:30.179Z,-1.1
2017-07-25T09:11:00.689Z,-1.1
2017-07-25T09:12:26.731Z,-1
2017-07-25T09:13:26.444Z,-1
2017-07-25T09:15:24.368Z,-1.1
2017-07-25T09:16:23.956Z,-1.1
2017-07-25T09:17:22.911Z,-1.1
2017-07-25T09:18:22.272Z,-1
2017-07-25T09:19:21.746Z,-1
2017-07-25T09:20:20.936Z,-1
2017-07-25T09:21:20.026Z,-0.9
2017-07-25T09:22:19.608Z,-1
2017-07-25T09:23:18.702Z,-1
2017-07-25T09:24:18.195Z,-1.1
2017-07-25T09:25:17.398Z,-1.1
2017-07-25T09:25:47.797Z,-1.1
2017-07-25T09:26:18.313Z,-1.1
2017-07-25T09:27:15.998Z,-1
2017-07-25T09:28:15.072Z,-1
2017-07-25T09:29:14.284Z,-1
2017-07-25T09:30:13.885Z,-0.9
2017-07-25T09:31:12.859Z,-1
2017-07-25T09:32:12.794Z,-1.1
2017-07-25T09:33:11.502Z,-1.1
2017-07-25T09:34:10.464Z,-1
2017-07-25T09:35:10.166Z,-1
2017-07-25T09:36:09.367Z,-1
2017-07-25T09:37:08.560Z,-0.9
2017-07-25T09:38:07.753Z,-1.1
2017-07-25T09:39:07.216Z,-1
2017-07-25T09:40:06.301Z,-1
2017-07-25T09:41:05.905Z,-1
2017-07-25T09:42:04.994Z,-1.1
2017-07-25T09:43:03.959Z,-1.1
2017-07-25T09:44:03.554Z,-1.1
2017-07-25T09:45:02.639Z,-1.1
2017-07-25T09:46:02.108Z,-1
2017-07-25T09:47:01.465Z,-1
2017-07-25T09:48:00.666Z,-0.9
2017-07-25T09:48:59.859Z,-0.9
2017-07-25T09:49:58.940Z,-0.9
2017-07-25T09:50:58.653Z,-0.9
2017-07-25T09:51:57.739Z,-0.9
2017-07-25T09:52:57.316Z,-0.9
2017-07-25T09:53:56.394Z,-0.8
2017-07-25T09:54:55.607Z,-0.9
2017-07-25T09:55:54.810Z,-0.9
2017-07-25T09:56:54.015Z,-0.8
2017-07-25T09:57:53.720Z,-0.8
2017-07-25T09:58:52.929Z,-0.8
2017-07-25T09:59:52.015Z,-0.7
2017-07-25T10:00:51.217Z,-0.6
2017-07-25T10:01:50.931Z,-0.7
2017-07-25T10:02:50.140Z,-0.7
2017-07-25T10:04:48.738Z,-0.6
2017-07-25T10:05:47.826Z,-0.7
2017-07-25T10:06:46.687Z,-0.7
2017-07-25T10:07:46.279Z,-0.8
2017-07-25T10:08:45.367Z,-0.8
2017-07-25T10:09:45.072Z,-0.8
2017-07-25T10:10:44.151Z,-0.7
2017-07-25T10:11:43.354Z,-0.7
2017-07-25T10:13:41.955Z,-0.8
2017-07-25T10:15:40.537Z,-0.8
2017-07-25T10:16:10.939Z,-0.8
2017-07-25T10:16:41.475Z,-0.8
2017-07-25T10:17:11.757Z,-0.8
2017-07-25T10:17:42.266Z,-0.7
2017-07-25T10:18:12.656Z,-0.7
2017-07-25T10:18:43.052Z,-0.8
2017-07-25T10:19:13.568Z,-0.8
2017-07-25T10:20:36.932Z,-0.8
2017-07-25T10:22:35.537Z,-0.7
2017-07-25T10:23:35.123Z,-0.7
2017-07-25T10:24:34.314Z,-0.7
2017-07-25T10:25:33.519Z,-0.6
2017-07-25T10:26:32.599Z,-0.7
2017-07-25T10:27:32.182Z,-0.8
2017-07-25T10:28:31.264Z,-0.8
2017-07-25T10:29:30.970Z,-0.7
2017-07-25T10:30:30.064Z,-0.9
2017-07-25T10:31:29.261Z,-1
2017-07-25T10:32:28.979Z,-1
2017-07-25T10:33:28.069Z,-0.9
2017-07-25T10:34:27.264Z,-1
2017-07-25T10:36:25.617Z,-0.8
2017-07-25T10:37:25.203Z,-0.8
2017-07-25T10:38:24.293Z,-0.8
2017-07-25T10:39:23.884Z,-0.8
2017-07-25T10:40:22.969Z,-0.6
2017-07-25T10:41:22.437Z,-0.6
2017-07-25T10:42:21.414Z,-0.7
2017-07-25T10:43:21.106Z,-0.6
2017-07-25T10:44:20.169Z,-0.6
2017-07-25T10:45:19.862Z,-0.7
2017-07-25T10:46:18.710Z,-0.6
2017-07-25T10:47:18.170Z,-0.6
2017-07-25T10:47:48.454Z,-0.6
2017-07-25T10:48:18.755Z,-0.6
2017-07-25T10:48:49.279Z,-0.6
2017-07-25T10:50:16.160Z,-0.9
2017-07-25T10:51:15.141Z,-0.9
2017-07-25T10:52:14.849Z,-0.8
2017-07-25T10:53:14.062Z,-0.8
2017-07-25T10:54:13.266Z,-0.9
2017-07-25T10:55:12.980Z,-0.9
2017-07-25T10:57:11.450Z,-1
2017-07-25T10:58:10.302Z,-0.9
2017-07-25T10:59:09.891Z,-0.8
2017-07-25T11:00:09.492Z,-0.7
2017-07-25T11:01:08.450Z,-0.7
2017-07-25T11:02:08.043Z,-0.5
2017-07-25T11:03:07.117Z,-0.5
2017-07-25T11:04:06.696Z,-0.5
2017-07-25T11:05:05.787Z,-0.5
2017-07-25T11:06:04.980Z,-0.5
2017-07-25T11:07:04.677Z,-0.5
2017-07-25T11:08:03.767Z,-0.5
2017-07-25T11:09:02.751Z,-0.5
2017-07-25T11:10:02.216Z,-0.5
2017-07-25T11:11:01.700Z,-0.5
2017-07-25T11:12:00.897Z,-0.5
2017-07-25T11:13:00.605Z,-0.4
2017-07-25T11:13:59.797Z,-0.4
2017-07-25T11:14:58.892Z,-0.5
2017-07-25T11:15:58.595Z,-0.7
2017-07-25T11:16:57.683Z,-0.6
2017-07-25T11:17:56.893Z,-0.6
2017-07-25T11:18:56.605Z,-0.6
2017-07-25T11:19:55.818Z,-0.6
2017-07-25T11:20:54.892Z,-0.5
2017-07-25T11:21:54.460Z,-0.5
2017-07-25T11:22:53.537Z,-0.4
2017-07-25T11:23:53.005Z,-0.5
2017-07-25T11:24:23.421Z,-0.5
2017-07-25T11:24:53.816Z,-0.5
2017-07-25T11:25:51.506Z,-0.5
2017-07-25T11:26:51.210Z,-0.5
2017-07-25T11:27:50.400Z,-0.4
2017-07-25T11:28:49.600Z,-0.4
2017-07-25T11:29:49.063Z,-0.2
2017-07-25T11:30:48.033Z,-0.2
2017-07-25T11:31:47.747Z,-0.1
2017-07-25T11:32:46.725Z,0
2017-07-25T11:33:46.433Z,0.1
2017-07-25T11:34:45.522Z,-0.1
2017-07-25T11:35:44.727Z,0
2017-07-25T11:36:44.423Z,0.2
2017-07-25T11:37:43.508Z,0.3
2017-07-25T11:38:42.583Z,0.4
2017-07-25T11:39:42.295Z,0.4
2017-07-25T11:40:41.379Z,0.7
2017-07-25T11:41:41.068Z,0.7
2017-07-25T11:42:40.151Z,0.4
2017-07-25T11:43:39.349Z,0.2
2017-07-25T11:44:09.615Z,0.2
2017-07-25T11:45:38.153Z,-0.3
2017-07-25T11:46:37.866Z,-0.6
2017-07-25T11:47:37.079Z,-0.6
2017-07-25T11:48:36.155Z,-0.4
2017-07-25T11:49:35.625Z,-0.7
2017-07-25T11:50:35.215Z,-0.7
2017-07-25T11:51:34.301Z,-0.5
2017-07-25T11:52:33.513Z,-0.5
2017-07-25T11:53:33.221Z,-0.5
2017-07-25T11:55:31.177Z,-0.6
2017-07-25T11:56:30.891Z,-0.4
2017-07-25T11:57:29.987Z,-0.5
2017-07-25T11:58:29.691Z,-0.3
2017-07-25T11:59:28.879Z,-0.2
2017-07-25T12:00:28.522Z,-0.2
2017-07-25T12:01:27.718Z,-0.3
2017-07-25T12:02:26.910Z,-0.3
2017-07-25T12:03:26.498Z,-0.4
2017-07-25T12:04:25.702Z,-0.4
2017-07-25T12:05:24.907Z,-0.5
2017-07-25T12:05:55.432Z,-0.5
2017-07-25T12:06:25.697Z,-0.5
2017-07-25T12:06:56.595Z,-0.5
2017-07-25T12:08:22.974Z,-0.5
2017-07-25T12:10:21.575Z,-0.5
2017-07-25T12:11:20.541Z,-0.4
2017-07-25T12:12:20.015Z,-0.4
2017-07-25T12:13:19.477Z,-0.4
2017-07-25T12:14:18.584Z,-0.4
2017-07-25T12:15:18.176Z,-0.4
2017-07-25T12:16:17.378Z,-0.4
2017-07-25T12:17:16.975Z,-0.4
2017-07-25T12:18:16.054Z,-0.4
2017-07-25T12:19:15.279Z,-0.3
2017-07-25T12:20:14.363Z,-0.3
2017-07-25T12:21:14.065Z,-0.3
2017-07-25T12:22:13.268Z,-0.3
2017-07-25T12:23:12.350Z,-0.3
2017-07-25T12:25:11.323Z,-0.3
2017-07-25T12:26:10.185Z,-0.2
2017-07-25T12:27:09.889Z,-0.2
2017-07-25T12:28:08.726Z,-0.2
2017-07-25T12:29:08.318Z,-0.2
2017-07-25T12:30:07.283Z,-0.3
2017-07-25T12:31:06.982Z,-0.1
2017-07-25T12:32:06.188Z,-0.1
2017-07-25T12:33:05.897Z,-0.3
2017-07-25T12:34:05.093Z,-0.2
2017-07-25T12:35:04.182Z,-0.3
2017-07-25T12:35:34.704Z,-0.3
2017-07-25T12:36:05.104Z,-0.3
2017-07-25T12:36:35.500Z,-0.3
2017-07-25T12:37:06.008Z,-0.3
2017-07-25T12:37:36.410Z,-0.3
2017-07-25T12:38:06.804Z,-0.3
2017-07-25T12:38:37.207Z,-0.3
2017-07-25T12:40:00.560Z,-0.1
2017-07-25T12:41:00.148Z,0
2017-07-25T12:42:58.735Z,-0.1
2017-07-25T12:43:57.827Z,-0.1
2017-07-25T12:44:57.527Z,-0.2
2017-07-25T12:45:56.747Z,-0.4
2017-07-25T12:46:55.949Z,-0.3
2017-07-25T12:47:55.138Z,-0.4
2017-07-25T12:48:54.356Z,-0.3
2017-07-25T12:49:53.817Z,-0.4
2017-07-25T12:50:53.020Z,-0.4
2017-07-25T12:51:52.245Z,-0.6
2017-07-25T12:52:51.591Z,-0.7
2017-07-25T12:53:50.664Z,-0.7
2017-07-25T12:54:50.358Z,-0.7
2017-07-25T12:55:49.447Z,-0.8
2017-07-25T12:56:49.047Z,-0.6
2017-07-25T12:57:48.012Z,-0.7
2017-07-25T12:58:47.482Z,-0.8
2017-07-25T12:59:46.227Z,-0.8
2017-07-25T13:00:45.835Z,-0.7
2017-07-25T13:01:45.540Z,-0.6
2017-07-25T13:02:44.745Z,-0.6
2017-07-25T13:03:43.948Z,-0.5
2017-07-25T13:04:43.036Z,-0.5
2017-07-25T13:05:42.504Z,-0.5
2017-07-25T13:06:41.727Z,-0.5
2017-07-25T13:07:41.427Z,-0.5
2017-07-25T13:08:40.644Z,-0.6
2017-07-25T13:09:39.606Z,-0.5
2017-07-25T13:10:39.189Z,-0.5
2017-07-25T13:11:38.148Z,-0.5
2017-07-25T13:13:36.622Z,-0.6
2017-07-25T13:14:36.211Z,-0.6
2017-07-25T13:15:35.292Z,-0.4
2017-07-25T13:16:34.889Z,-0.3
2017-07-25T13:17:34.087Z,-0.3
2017-07-25T13:18:33.171Z,-0.3
2017-07-25T13:19:32.755Z,-0.4
2017-07-25T13:20:31.848Z,-0.3
2017-07-25T13:21:31.438Z,-0.3
2017-07-25T13:22:30.640Z,-0.4
2017-07-25T13:23:29.721Z,-0.4
2017-07-25T13:24:29.187Z,-0.3
2017-07-25T13:25:28.388Z,-0.2
2017-07-25T13:26:27.343Z,-0.3
2017-07-25T13:27:27.042Z,-0.3
2017-07-25T13:28:26.001Z,-0.4
2017-07-25T13:29:25.708Z,-0.4
2017-07-25T13:30:24.910Z,-0.5
2017-07-25T13:31:24.110Z,-0.4
2017-07-25T13:32:23.931Z,-0.4